createdAt,value
2023-05-10T03:04:33.112Z,44.73
2023-05-10T04:59:49.699Z,52.05
2023-05-10T05:28:45.148Z,50.58
2023-05-10T05:37:25.565Z,49.88
2023-05-10T05:41:34.235Z,49.72
2023-05-10T05:46:19.086Z,50.75
2023-05-10T05:54:28.529Z,46.92
2023-05-10T05:57:07.137Z,45.17
2023-05-10T05:59:47.991Z,49.40
2023-05-10T06:05:00.568Z,41.42
2023-05-10T06:10:18.089Z,35.67
2023-05-10T06:12:44.811Z,34.00
2023-05-10T06:15:16.012Z,37.03
2023-05-10T06:17:46.004Z,39.25
2023-05-10T06:20:40.184Z,39.58
2023-05-10T06:23:04.917Z,40.30
2023-05-10T06:25:31.670Z,38.00
2023-05-10T06:27:59.055Z,39.97
2023-05-10T06:30:30.116Z,38.03
2023-05-10T06:32:57.611Z,36.50
2023-05-10T06:35:24.698Z,34.50
2023-05-10T06:37:52.298Z,31.00
2023-05-10T06:40:20.519Z,34.23
2023-05-10T06:42:47.765Z,30.83
2023-05-10T06:45:15.863Z,34.55
2023-05-10T06:47:42.873Z,30.40
2023-05-10T06:50:10.711Z,29.13
2023-05-10T06:52:38.171Z,23.70
2023-05-10T06:55:05.407Z,22.80
2023-05-10T06:57:32.791Z,21.88
2023-05-10T07:00:00.029Z,23.23
2023-05-10T07:02:26.690Z,22.35
2023-05-10T07:04:53.442Z,18.57
2023-05-10T07:07:20.225Z,22.17
2023-05-10T07:12:23.292Z,18.77
2023-05-10T07:15:18.648Z,16.02
2023-05-10T07:17:46.668Z,19.13
2023-05-10T07:20:15.031Z,14.63
2023-05-10T07:22:41.715Z,16.45
2023-05-10T07:25:08.632Z,19.30
2023-05-10T07:27:35.526Z,18.27
2023-05-10T07:30:03.522Z,16.93
2023-05-10T07:32:30.148Z,15.80
2023-05-10T07:34:56.785Z,15.40
2023-05-10T07:37:23.603Z,13.98
2023-05-10T07:42:35.914Z,13.97
2023-05-10T07:45:05.153Z,15.80
2023-05-10T07:47:31.920Z,16.25
2023-05-10T07:53:01.929Z,14.15
2023-05-10T07:55:28.615Z,15.63
2023-05-10T07:57:55.226Z,15.52
2023-05-10T08:00:49.057Z,14.65
2023-05-10T08:03:18.695Z,13.98
2023-05-10T08:05:45.571Z,15.30
2023-05-10T08:08:18.481Z,12.23
2023-05-10T08:10:45.369Z,11.52
2023-05-10T08:13:15.380Z,14.63
2023-05-10T08:15:42.049Z,12.20
2023-05-10T08:18:08.787Z,12.48
2023-05-10T08:20:35.463Z,14.07
2023-05-10T08:27:12.438Z,14.57
2023-05-10T08:29:49.725Z,14.70
2023-05-10T08:32:42.375Z,15.02
2023-05-10T08:35:07.024Z,14.63
2023-05-10T08:37:34.119Z,13.98
2023-05-10T08:40:00.882Z,14.75
2023-05-10T08:42:31.303Z,14.50
2023-05-10T08:44:59.155Z,13.75
2023-05-10T08:47:26.528Z,13.90
2023-05-10T08:49:53.581Z,11.82
2023-05-10T08:52:20.989Z,14.23
2023-05-10T08:54:48.050Z,14.32
2023-05-10T08:57:14.719Z,16.75
2023-05-10T08:59:41.498Z,15.10
2023-05-10T09:02:13.393Z,15.50
2023-05-10T09:04:40.227Z,13.25
2023-05-10T09:07:08.174Z,11.05
2023-05-10T09:09:36.013Z,11.80
2023-05-10T09:12:02.657Z,11.60
2023-05-10T09:14:30.017Z,12.75
2023-05-10T09:16:57.360Z,17.58
2023-05-10T09:19:23.922Z,13.80
2023-05-10T09:21:50.778Z,20.65
2023-05-10T09:24:17.213Z,23.67
2023-05-10T09:26:49.320Z,8.77
2023-05-10T09:29:17.473Z,8.85
2023-05-10T09:31:48.037Z,4.57
2023-05-10T09:34:20.315Z,5.18
2023-05-10T09:36:53.723Z,7.30
2023-05-10T09:39:20.482Z,6.68
2023-05-10T09:41:47.863Z,5.47
2023-05-10T09:44:19.684Z,5.95
2023-05-10T09:46:50.847Z,5.25
2023-05-10T09:49:17.362Z,7.53
2023-05-10T09:51:43.851Z,5.45
2023-05-10T09:54:12.157Z,6.20
2023-05-10T09:56:41.384Z,6.18
2023-05-10T09:59:11.098Z,6.05
2023-05-10T10:01:38.489Z,7.83
2023-05-10T10:04:06.905Z,6.90
2023-05-10T10:06:38.608Z,5.55
2023-05-10T10:09:06.006Z,8.52
2023-05-10T10:11:33.960Z,7.63
2023-05-10T10:14:00.840Z,8.30
2023-05-10T10:16:29.924Z,6.28
2023-05-10T10:18:57.119Z,7.10
2023-05-10T10:21:25.724Z,7.53
2023-05-10T10:23:53.706Z,7.20
2023-05-10T10:26:22.091Z,7.27
2023-05-10T10:28:57.985Z,9.10
2023-05-10T10:31:36.636Z,7.45
2023-05-10T10:34:11.087Z,7.22
2023-05-10T10:36:48.054Z,7.30
2023-05-10T10:39:15.769Z,7.33
2023-05-10T10:41:53.024Z,9.23
2023-05-10T10:44:24.408Z,6.53
2023-05-10T10:47:26.261Z,7.20
2023-05-10T10:49:58.747Z,7.90
2023-05-10T10:52:30.133Z,6.47
2023-05-10T10:55:06.365Z,8.95
2023-05-10T10:57:34.862Z,6.13
2023-05-10T11:00:22.768Z,7.97
2023-05-10T11:02:52.875Z,6.75
2023-05-10T11:05:34.455Z,6.93
2023-05-10T11:08:07.714Z,7.00
2023-05-10T11:10:34.291Z,8.15
2023-05-10T11:13:03.348Z,7.22
2023-05-10T11:15:31.955Z,6.93
2023-05-10T11:17:58.569Z,7.60
2023-05-10T11:20:34.033Z,8.48
2023-05-10T11:23:13.944Z,7.82
2023-05-10T11:25:47.235Z,7.05
2023-05-10T11:28:14.076Z,7.30
2023-05-10T11:30:42.162Z,8.27
2023-05-10T11:33:09.331Z,7.00
2023-05-10T11:35:43.199Z,7.57
2023-05-10T11:38:12.130Z,7.45
2023-05-10T11:40:39.875Z,7.85
2023-05-10T11:43:06.721Z,5.43
2023-05-10T11:45:34.446Z,6.82
2023-05-10T11:48:02.081Z,5.65
2023-05-10T11:50:29.119Z,6.75
2023-05-10T11:52:57.616Z,6.70
2023-05-10T11:55:25.235Z,5.93
2023-05-10T11:57:54.271Z,6.40
2023-05-10T12:00:21.138Z,4.47
2023-05-10T12:02:49.054Z,5.38
2023-05-10T12:05:16.013Z,5.78
2023-05-10T12:07:42.522Z,4.43
2023-05-10T12:10:16.320Z,5.00
2023-05-10T12:12:45.871Z,6.07
2023-05-10T12:15:18.685Z,2.95
2023-05-10T12:17:46.202Z,5.35
2023-05-10T12:20:20.810Z,2.60
2023-05-10T12:22:55.413Z,4.00
2023-05-10T12:25:23.641Z,3.75
2023-05-10T12:27:52.784Z,5.53
2023-05-10T12:30:29.774Z,5.35
2023-05-10T12:33:02.606Z,5.10
2023-05-10T12:35:32.332Z,4.38
2023-05-10T12:37:59.359Z,4.00
2023-05-10T12:40:25.978Z,4.00
2023-05-10T12:42:53.193Z,5.00
2023-05-10T12:45:19.791Z,4.27
2023-05-10T12:47:46.373Z,3.65
2023-05-10T12:50:12.931Z,4.05
2023-05-10T12:52:39.440Z,4.07
2023-05-10T12:55:06.157Z,3.47
2023-05-10T12:57:32.792Z,4.17
2023-05-10T12:59:59.287Z,3.67
2023-05-10T13:02:26.037Z,2.40
2023-05-10T13:04:53.056Z,3.28
2023-05-10T13:07:19.665Z,4.00
2023-05-10T13:09:46.372Z,3.20
2023-05-10T13:12:12.968Z,4.00
2023-05-10T13:14:41.439Z,3.38
2023-05-10T13:17:08.270Z,2.88
2023-05-10T13:19:34.923Z,3.00
2023-05-10T13:22:02.579Z,2.30
2023-05-10T13:24:29.209Z,5.28
2023-05-10T13:26:57.067Z,4.25
2023-05-10T13:29:23.726Z,6.60
2023-05-10T13:31:50.586Z,7.72
2023-05-10T13:34:17.438Z,8.70
2023-05-10T13:36:44.093Z,10.05
2023-05-10T13:39:10.631Z,9.73
2023-05-10T13:41:37.812Z,8.60
2023-05-10T13:44:04.639Z,7.82
2023-05-10T13:46:31.858Z,6.97
2023-05-10T13:49:07.313Z,8.85
2023-05-10T13:51:35.303Z,7.80
2023-05-10T13:54:02.182Z,8.15
2023-05-10T13:56:28.852Z,9.82
2023-05-10T13:58:55.464Z,6.90
2023-05-10T14:01:22.009Z,9.30
2023-05-10T14:03:49.152Z,7.65
2023-05-10T14:06:15.959Z,8.57
2023-05-10T14:08:43.047Z,7.70
2023-05-10T14:11:09.840Z,9.33
2023-05-10T14:13:36.489Z,9.73
2023-05-10T14:16:04.147Z,9.30
2023-05-10T14:18:31.033Z,11.40
2023-05-10T14:20:58.827Z,9.05
2023-05-10T14:23:25.363Z,9.80
2023-05-10T14:25:53.117Z,9.48
2023-05-10T14:28:21.500Z,7.53
2023-05-10T14:30:48.307Z,6.68
2023-05-10T14:33:15.405Z,7.72
2023-05-10T14:35:42.124Z,8.80
2023-05-10T14:38:08.814Z,8.30
2023-05-10T14:40:35.624Z,7.78
2023-05-10T14:43:02.186Z,8.07
2023-05-10T14:45:29.782Z,9.63
2023-05-10T14:47:57.465Z,9.90
2023-05-10T14:50:35.985Z,10.80
2023-05-10T14:53:03.879Z,9.88
2023-05-10T14:55:31.031Z,9.63
2023-05-10T14:57:58.290Z,11.27
2023-05-10T15:00:24.970Z,9.33
2023-05-10T15:02:51.900Z,9.95
2023-05-10T15:05:19.214Z,8.98
2023-05-10T15:07:46.448Z,8.88
2023-05-10T15:10:13.218Z,10.98
2023-05-10T15:12:39.782Z,9.53
2023-05-10T15:15:07.394Z,9.68
2023-05-10T15:17:34.473Z,12.68
2023-05-10T15:20:03.959Z,8.20
2023-05-10T15:22:34.195Z,11.95
2023-05-10T15:25:01.136Z,11.17
2023-05-10T15:27:27.719Z,9.68
2023-05-10T15:29:54.333Z,9.00
2023-05-10T15:32:22.789Z,8.48
2023-05-10T15:34:49.393Z,10.32
2023-05-10T15:37:15.981Z,7.93
2023-05-10T15:39:42.565Z,9.30
2023-05-10T15:42:09.184Z,9.73
2023-05-10T15:44:36.103Z,8.48
2023-05-10T15:47:03.793Z,10.63
2023-05-10T15:49:30.589Z,7.73
2023-05-10T15:51:57.119Z,6.68
2023-05-10T15:54:23.624Z,7.13
2023-05-10T15:56:50.175Z,6.90
2023-05-10T15:59:16.713Z,7.20
2023-05-10T16:01:44.373Z,7.43
2023-05-10T16:04:10.982Z,7.78
2023-05-10T16:06:37.982Z,8.15
2023-05-10T16:09:04.739Z,7.63
2023-05-10T16:11:31.413Z,8.93
2023-05-10T16:13:58.107Z,7.27
2023-05-10T16:16:24.752Z,7.93
2023-05-10T16:18:52.440Z,7.30
2023-05-10T16:21:19.214Z,8.63
2023-05-10T16:23:46.516Z,6.82
2023-05-10T16:26:13.195Z,7.93
2023-05-10T16:28:41.909Z,8.05
2023-05-10T16:31:08.417Z,8.32
2023-05-10T16:33:35.299Z,9.45
2023-05-10T16:36:01.792Z,8.38
2023-05-10T16:38:28.397Z,7.93
2023-05-10T16:40:56.429Z,9.85
2023-05-10T16:43:24.701Z,8.98
2023-05-10T16:45:52.675Z,7.50
2023-05-10T16:48:19.191Z,8.60
2023-05-10T16:50:45.980Z,7.33
2023-05-10T16:53:12.775Z,6.38
2023-05-10T16:55:39.368Z,5.45
2023-05-10T16:58:05.939Z,5.05
2023-05-10T17:00:32.632Z,6.10
2023-05-10T17:02:59.366Z,7.30
2023-05-10T17:05:26.440Z,6.13
2023-05-10T17:07:53.089Z,5.50
2023-05-10T17:10:19.802Z,4.85
2023-05-10T17:12:46.436Z,4.35
2023-05-10T17:15:13.271Z,5.87
2023-05-10T17:17:39.889Z,4.63
2023-05-10T17:20:07.369Z,6.18
2023-05-10T17:22:34.082Z,5.45
2023-05-10T17:39:05.131Z,4.03
2023-05-10T17:41:36.813Z,5.13
2023-05-10T17:44:29.170Z,5.07
2023-05-10T17:50:32.806Z,7.72
2023-05-10T17:53:04.531Z,5.45
2023-05-10T17:55:35.495Z,5.90
2023-05-10T17:58:03.276Z,6.10
2023-05-10T18:00:30.111Z,7.32
2023-05-10T18:02:56.879Z,6.68
2023-05-10T18:05:24.148Z,7.70
2023-05-10T18:07:53.609Z,6.85
2023-05-10T18:10:21.671Z,5.67
2023-05-10T18:13:08.864Z,6.88
2023-05-10T18:15:35.841Z,7.15
2023-05-10T18:18:05.283Z,10.02
2023-05-10T18:20:32.013Z,7.45
2023-05-10T18:22:58.814Z,8.17
2023-05-10T18:25:59.744Z,7.82
2023-05-10T18:28:29.674Z,7.28
2023-05-10T18:31:19.621Z,9.15
2023-05-10T18:36:50.296Z,6.50
2023-05-10T18:39:19.496Z,6.68
2023-05-10T18:41:46.525Z,8.98
2023-05-10T18:44:13.285Z,9.07
2023-05-10T18:49:23.049Z,9.67
2023-05-10T18:51:54.689Z,9.38
2023-05-10T18:54:23.480Z,8.05
2023-05-10T18:56:53.341Z,9.52
2023-05-10T18:59:20.186Z,7.32
2023-05-10T19:01:47.938Z,9.00
2023-05-10T19:04:16.393Z,8.32
2023-05-10T19:06:43.261Z,9.77
2023-05-10T19:11:54.249Z,9.50
2023-05-10T19:14:21.441Z,9.00
2023-05-10T19:16:48.440Z,10.32
2023-05-10T19:19:15.446Z,11.80
2023-05-10T19:21:42.475Z,15.90
2023-05-10T19:43:49.191Z,21.77
2023-05-10T19:46:20.520Z,17.20
2023-05-10T19:52:15.208Z,14.73
2023-05-10T19:58:23.677Z,12.90
2023-05-10T20:04:50.528Z,11.75
2023-05-10T20:07:47.961Z,11.20
2023-05-10T20:13:51.734Z,13.20
2023-05-10T20:16:25.083Z,11.38
2023-05-10T20:19:19.768Z,11.98
2023-05-10T20:49:42.417Z,9.48
2023-05-10T21:14:06.769Z,10.77
2023-05-10T21:16:37.811Z,11.27
2023-05-10T21:22:58.390Z,12.85
2023-05-10T21:25:51.676Z,12.07
2023-05-10T21:28:21.766Z,10.48
2023-05-10T21:31:15.182Z,9.77
2023-05-10T21:36:27.280Z,12.48
2023-05-10T21:38:58.980Z,11.75
2023-05-10T21:41:28.665Z,12.88
2023-05-10T21:43:58.249Z,13.57
2023-05-10T21:46:50.152Z,11.77
2023-05-10T21:49:38.992Z,9.27
2023-05-10T21:57:55.948Z,10.23
2023-05-10T22:03:23.477Z,11.98
2023-05-10T22:04:07.458Z,9.43
2023-05-10T22:09:25.457Z,12.23
2023-05-10T22:11:54.674Z,11.47
2023-05-10T22:19:49.125Z,12.35
2023-05-10T22:22:18.424Z,10.80
2023-05-10T22:24:47.387Z,9.37
2023-05-10T22:30:00.574Z,11.07
2023-05-10T22:32:27.641Z,12.50
2023-05-10T22:35:26.922Z,13.00
2023-05-10T22:37:43.940Z,11.77
2023-05-10T22:40:11.693Z,10.50
2023-05-10T22:42:40.568Z,12.32
2023-05-10T22:45:08.145Z,11.13
2023-05-10T22:47:35.165Z,13.55
2023-05-10T22:50:05.804Z,12.77
2023-05-10T22:52:32.526Z,12.15
2023-05-10T22:54:59.382Z,11.55
2023-05-10T22:57:26.672Z,9.55
2023-05-10T22:59:55.624Z,13.20
2023-05-10T23:02:22.314Z,12.77
2023-05-10T23:04:49.333Z,13.35
2023-05-10T23:07:16.121Z,13.20
2023-05-10T23:09:42.859Z,10.52
2023-05-10T23:12:09.809Z,15.30
2023-05-10T23:14:36.468Z,13.83
2023-05-10T23:17:03.240Z,14.95
2023-05-10T23:19:33.405Z,16.08
2023-05-10T23:22:02.490Z,15.50
2023-05-10T23:24:29.214Z,13.30
2023-05-10T23:26:58.138Z,13.43
2023-05-10T23:32:09.109Z,12.75
2023-05-10T23:34:38.860Z,15.38
2023-05-10T23:37:10.872Z,14.27
2023-05-10T23:39:37.728Z,16.20
2023-05-10T23:42:04.609Z,20.27
2023-05-10T23:44:31.740Z,17.17
2023-05-10T23:46:58.666Z,17.88
2023-05-10T23:49:28.527Z,19.30
2023-05-10T23:51:55.375Z,18.67
2023-05-10T23:54:22.238Z,17.40
2023-05-10T23:57:15.138Z,19.40
